sensor_id;sensor_type;location;lat;lon;timestamp;P1;durP1;ratioP1;P2;durP2;ratioP2
85158;SDS011;75525;50.718;10.600;2024-03-17T00:00:53;2.72;;;1.52;;
85158;SDS011;75525;50.718;10.600;2024-03-17T00:01:54;4.28;;;1.80;;
85158;SDS011;75525;50.718;10.600;2024-03-17T00:02:55;5.20;;;2.22;;
85158;SDS011;75525;50.718;10.600;2024-03-17T00:03:55;4.15;;;1.60;;
85158;SDS011;75525;50.718;10.600;2024-03-17T00:04:56;3.17;;;1.42;;
85158;SDS011;75525;50.718;10.600;2024-03-17T00:05:57;6.88;;;2.05;;
85158;SDS011;75525;50.718;10.600;2024-03-17T00:06:58;3.28;;;1.75;;
85158;SDS011;75525;50.718;10.600;2024-03-17T00:07:59;5.13;;;1.90;;
85158;SDS011;75525;50.718;10.600;2024-03-17T00:08:59;4.57;;;1.77;;
85158;SDS011;75525;50.718;10.600;2024-03-17T00:10:06;2.40;;;1.65;;
85158;SDS011;75525;50.718;10.600;2024-03-17T00:11:10;2.42;;;1.77;;
85158;SDS011;75525;50.718;10.600;2024-03-17T00:12:11;3.85;;;1.77;;
85158;SDS011;75525;50.718;10.600;2024-03-17T00:13:12;2.53;;;1.80;;
85158;SDS011;75525;50.718;10.600;2024-03-17T00:14:12;3.85;;;1.67;;
85158;SDS011;75525;50.718;10.600;2024-03-17T00:15:12;5.13;;;1.73;;
85158;SDS011;75525;50.718;10.600;2024-03-17T00:16:14;2.20;;;1.52;;
85158;SDS011;75525;50.718;10.600;2024-03-17T00:17:18;4.50;;;1.80;;
85158;SDS011;75525;50.718;10.600;2024-03-17T00:18:20;2.28;;;1.70;;
85158;SDS011;75525;50.718;10.600;2024-03-17T00:19:21;5.57;;;1.80;;
85158;SDS011;75525;50.718;10.600;2024-03-17T00:20:26;4.78;;;1.50;;
85158;SDS011;75525;50.718;10.600;2024-03-17T00:21:28;2.70;;;1.60;;
85158;SDS011;75525;50.718;10.600;2024-03-17T00:22:29;3.90;;;1.85;;
85158;SDS011;75525;50.718;10.600;2024-03-17T00:23:29;6.72;;;2.05;;
85158;SDS011;75525;50.718;10.600;2024-03-17T00:24:30;6.63;;;2.00;;
85158;SDS011;75525;50.718;10.600;2024-03-17T00:25:35;4.18;;;1.52;;
85158;SDS011;75525;50.718;10.600;2024-03-17T00:26:35;3.97;;;1.88;;
85158;SDS011;75525;50.718;10.600;2024-03-17T00:27:36;5.72;;;2.15;;
85158;SDS011;75525;50.718;10.600;2024-03-17T00:28:39;2.53;;;1.73;;
85158;SDS011;75525;50.718;10.600;2024-03-17T00:29:40;2.47;;;1.80;;
85158;SDS011;75525;50.718;10.600;2024-03-17T00:30:40;4.72;;;1.92;;
85158;SDS011;75525;50.718;10.600;2024-03-17T00:31:41;3.25;;;1.67;;
85158;SDS011;75525;50.718;10.600;2024-03-17T00:32:42;2.85;;;1.55;;
85158;SDS011;75525;50.718;10.600;2024-03-17T00:33:42;4.80;;;2.35;;
85158;SDS011;75525;50.718;10.600;2024-03-17T00:34:44;2.70;;;1.90;;
85158;SDS011;75525;50.718;10.600;2024-03-17T00:35:44;3.45;;;1.80;;
85158;SDS011;75525;50.718;10.600;2024-03-17T00:36:45;2.60;;;1.50;;
85158;SDS011;75525;50.718;10.600;2024-03-17T00:37:48;3.40;;;1.65;;
85158;SDS011;75525;50.718;10.600;2024-03-17T00:40:52;3.53;;;1.70;;
85158;SDS011;75525;50.718;10.600;2024-03-17T00:41:53;4.22;;;2.10;;
85158;SDS011;75525;50.718;10.600;2024-03-17T00:42:53;2.70;;;1.90;;
85158;SDS011;75525;50.718;10.600;2024-03-17T00:43:54;4.05;;;2.33;;
85158;SDS011;75525;50.718;10.600;2024-03-17T00:44:55;5.30;;;2.30;;
85158;SDS011;75525;50.718;10.600;2024-03-17T00:45:55;4.93;;;2.22;;
85158;SDS011;75525;50.718;10.600;2024-03-17T00:46:56;5.50;;;2.67;;
85158;SDS011;75525;50.718;10.600;2024-03-17T00:47:56;5.47;;;2.75;;
85158;SDS011;75525;50.718;10.600;2024-03-17T00:48:58;3.15;;;1.90;;
85158;SDS011;75525;50.718;10.600;2024-03-17T00:50:00;5.18;;;2.10;;
85158;SDS011;75525;50.718;10.600;2024-03-17T00:51:00;6.32;;;2.38;;
85158;SDS011;75525;50.718;10.600;2024-03-17T00:52:01;3.58;;;2.03;;
85158;SDS011;75525;50.718;10.600;2024-03-17T00:53:01;4.35;;;2.00;;
85158;SDS011;75525;50.718;10.600;2024-03-17T00:54:03;3.38;;;2.08;;
85158;SDS011;75525;50.718;10.600;2024-03-17T00:55:04;4.80;;;2.13;;
85158;SDS011;75525;50.718;10.600;2024-03-17T00:56:04;4.03;;;1.92;;
85158;SDS011;75525;50.718;10.600;2024-03-17T00:57:05;5.25;;;1.98;;
85158;SDS011;75525;50.718;10.600;2024-03-17T00:58:05;3.55;;;1.80;;
85158;SDS011;75525;50.718;10.600;2024-03-17T00:59:06;5.47;;;2.10;;
85158;SDS011;75525;50.718;10.600;2024-03-17T01:00:06;5.07;;;2.03;;
85158;SDS011;75525;50.718;10.600;2024-03-17T01:01:10;5.32;;;2.15;;
85158;SDS011;75525;50.718;10.600;2024-03-17T01:02:11;4.25;;;1.55;;
85158;SDS011;75525;50.718;10.600;2024-03-17T01:03:14;4.30;;;2.05;;
85158;SDS011;75525;50.718;10.600;2024-03-17T01:04:16;4.38;;;2.17;;
85158;SDS011;75525;50.718;10.600;2024-03-17T01:05:16;3.03;;;1.80;;
85158;SDS011;75525;50.718;10.600;2024-03-17T01:06:17;5.03;;;2.05;;
85158;SDS011;75525;50.718;10.600;2024-03-17T01:07:17;5.00;;;1.90;;
85158;SDS011;75525;50.718;10.600;2024-03-17T01:08:18;4.65;;;2.00;;
85158;SDS011;75525;50.718;10.600;2024-03-17T01:09:19;2.10;;;1.60;;
85158;SDS011;75525;50.718;10.600;2024-03-17T01:10:19;5.65;;;2.00;;
85158;SDS011;75525;50.718;10.600;2024-03-17T01:11:20;3.22;;;2.22;;
85158;SDS011;75525;50.718;10.600;2024-03-17T01:12:20;2.60;;;1.40;;
85158;SDS011;75525;50.718;10.600;2024-03-17T01:13:21;3.15;;;2.00;;
85158;SDS011;75525;50.718;10.600;2024-03-17T01:14:21;5.00;;;1.67;;
85158;SDS011;75525;50.718;10.600;2024-03-17T01:15:22;3.13;;;1.77;;
85158;SDS011;75525;50.718;10.600;2024-03-17T01:16:23;4.95;;;1.92;;
85158;SDS011;75525;50.718;10.600;2024-03-17T01:17:24;4.40;;;1.67;;
85158;SDS011;75525;50.718;10.600;2024-03-17T01:18:24;4.57;;;1.85;;
85158;SDS011;75525;50.718;10.600;2024-03-17T01:19:25;2.38;;;1.60;;
85158;SDS011;75525;50.718;10.600;2024-03-17T01:20:26;4.88;;;1.95;;
85158;SDS011;75525;50.718;10.600;2024-03-17T01:21:27;4.32;;;2.00;;
85158;SDS011;75525;50.718;10.600;2024-03-17T01:22:27;4.10;;;1.75;;
85158;SDS011;75525;50.718;10.600;2024-03-17T01:23:28;2.25;;;1.90;;
85158;SDS011;75525;50.718;10.600;2024-03-17T01:24:28;3.30;;;1.88;;
85158;SDS011;75525;50.718;10.600;2024-03-17T01:25:34;2.55;;;1.73;;
85158;SDS011;75525;50.718;10.600;2024-03-17T01:26:37;3.45;;;2.38;;
85158;SDS011;75525;50.718;10.600;2024-03-17T01:27:37;3.85;;;1.90;;
85158;SDS011;75525;50.718;10.600;2024-03-17T01:28:38;4.85;;;2.05;;
85158;SDS011;75525;50.718;10.600;2024-03-17T01:29:39;5.28;;;1.80;;
85158;SDS011;75525;50.718;10.600;2024-03-17T01:30:39;3.70;;;1.67;;
85158;SDS011;75525;50.718;10.600;2024-03-17T01:31:39;2.97;;;1.33;;
85158;SDS011;75525;50.718;10.600;2024-03-17T01:32:40;4.25;;;1.80;;
85158;SDS011;75525;50.718;10.600;2024-03-17T01:33:40;4.40;;;1.70;;
85158;SDS011;75525;50.718;10.600;2024-03-17T01:34:41;3.38;;;1.80;;
85158;SDS011;75525;50.718;10.600;2024-03-17T01:35:41;3.90;;;2.03;;
85158;SDS011;75525;50.718;10.600;2024-03-17T01:36:42;4.07;;;2.05;;
85158;SDS011;75525;50.718;10.600;2024-03-17T01:37:42;3.40;;;2.10;;
85158;SDS011;75525;50.718;10.600;2024-03-17T01:38:42;2.45;;;1.73;;
85158;SDS011;75525;50.718;10.600;2024-03-17T01:39:43;2.40;;;1.42;;
85158;SDS011;75525;50.718;10.600;2024-03-17T01:40:43;5.25;;;1.63;;
85158;SDS011;75525;50.718;10.600;2024-03-17T01:41:44;5.07;;;1.88;;
85158;SDS011;75525;50.718;10.600;2024-03-17T01:42:44;2.83;;;1.70;;
85158;SDS011;75525;50.718;10.600;2024-03-17T01:43:45;3.50;;;1.77;;
85158;SDS011;75525;50.718;10.600;2024-03-17T01:44:45;4.28;;;1.90;;
85158;SDS011;75525;50.718;10.600;2024-03-17T01:45:46;6.32;;;1.83;;
85158;SDS011;75525;50.718;10.600;2024-03-17T01:46:47;3.40;;;1.50;;
85158;SDS011;75525;50.718;10.600;2024-03-17T01:47:47;3.00;;;1.67;;
85158;SDS011;75525;50.718;10.600;2024-03-17T01:48:48;4.40;;;1.65;;
85158;SDS011;75525;50.718;10.600;2024-03-17T01:49:48;3.85;;;1.73;;
85158;SDS011;75525;50.718;10.600;2024-03-17T01:50:51;4.68;;;1.80;;
85158;SDS011;75525;50.718;10.600;2024-03-17T01:51:53;3.83;;;1.90;;
85158;SDS011;75525;50.718;10.600;2024-03-17T01:52:55;2.60;;;1.70;;
85158;SDS011;75525;50.718;10.600;2024-03-17T01:53:59;3.72;;;1.67;;
85158;SDS011;75525;50.718;10.600;2024-03-17T01:55:00;4.07;;;1.70;;
85158;SDS011;75525;50.718;10.600;2024-03-17T01:56:03;4.15;;;2.22;;
85158;SDS011;75525;50.718;10.600;2024-03-17T01:57:04;4.63;;;2.00;;
85158;SDS011;75525;50.718;10.600;2024-03-17T01:58:05;4.70;;;1.73;;
85158;SDS011;75525;50.718;10.600;2024-03-17T01:59:12;2.95;;;1.92;;
85158;SDS011;75525;50.718;10.600;2024-03-17T02:00:14;4.47;;;1.70;;
85158;SDS011;75525;50.718;10.600;2024-03-17T02:01:14;2.63;;;1.67;;
85158;SDS011;75525;50.718;10.600;2024-03-17T02:02:16;3.22;;;1.80;;
85158;SDS011;75525;50.718;10.600;2024-03-17T02:03:16;4.57;;;1.98;;
85158;SDS011;75525;50.718;10.600;2024-03-17T02:04:16;5.50;;;1.60;;
85158;SDS011;75525;50.718;10.600;2024-03-17T02:05:17;3.25;;;1.58;;
85158;SDS011;75525;50.718;10.600;2024-03-17T02:06:18;2.70;;;1.80;;
85158;SDS011;75525;50.718;10.600;2024-03-17T02:07:18;2.80;;;1.73;;
85158;SDS011;75525;50.718;10.600;2024-03-17T02:08:19;2.95;;;1.55;;
85158;SDS011;75525;50.718;10.600;2024-03-17T02:09:21;3.58;;;1.67;;
85158;SDS011;75525;50.718;10.600;2024-03-17T02:10:22;4.68;;;1.42;;
85158;SDS011;75525;50.718;10.600;2024-03-17T02:11:26;2.40;;;1.60;;
85158;SDS011;75525;50.718;10.600;2024-03-17T02:12:31;6.20;;;2.00;;
85158;SDS011;75525;50.718;10.600;2024-03-17T02:13:32;3.90;;;1.90;;
85158;SDS011;75525;50.718;10.600;2024-03-17T02:14:33;2.03;;;1.45;;
85158;SDS011;75525;50.718;10.600;2024-03-17T02:15:34;2.90;;;1.55;;
85158;SDS011;75525;50.718;10.600;2024-03-17T02:16:34;4.00;;;1.85;;
85158;SDS011;75525;50.718;10.600;2024-03-17T02:17:34;3.25;;;1.73;;
85158;SDS011;75525;50.718;10.600;2024-03-17T02:18:35;4.15;;;2.08;;
85158;SDS011;75525;50.718;10.600;2024-03-17T02:19:35;5.13;;;2.20;;
85158;SDS011;75525;50.718;10.600;2024-03-17T02:20:36;3.08;;;1.58;;
85158;SDS011;75525;50.718;10.600;2024-03-17T02:21:55;4.10;;;1.73;;
85158;SDS011;75525;50.718;10.600;2024-03-17T02:22:55;3.40;;;1.85;;
85158;SDS011;75525;50.718;10.600;2024-03-17T02:23:56;3.63;;;1.77;;
85158;SDS011;75525;50.718;10.600;2024-03-17T02:24:57;6.13;;;2.00;;
85158;SDS011;75525;50.718;10.600;2024-03-17T02:25:57;3.63;;;1.95;;
85158;SDS011;75525;50.718;10.600;2024-03-17T02:26:57;5.03;;;2.10;;
85158;SDS011;75525;50.718;10.600;2024-03-17T02:27:58;4.70;;;1.75;;
85158;SDS011;75525;50.718;10.600;2024-03-17T02:28:59;4.13;;;2.08;;
85158;SDS011;75525;50.718;10.600;2024-03-17T02:29:59;5.97;;;2.58;;
85158;SDS011;75525;50.718;10.600;2024-03-17T02:31:00;4.10;;;2.05;;
85158;SDS011;75525;50.718;10.600;2024-03-17T02:32:00;6.30;;;2.50;;
85158;SDS011;75525;50.718;10.600;2024-03-17T02:33:06;3.45;;;2.30;;
85158;SDS011;75525;50.718;10.600;2024-03-17T02:34:06;3.05;;;2.58;;
85158;SDS011;75525;50.718;10.600;2024-03-17T02:35:07;2.30;;;1.90;;
85158;SDS011;75525;50.718;10.600;2024-03-17T02:36:07;6.45;;;2.47;;
85158;SDS011;75525;50.718;10.600;2024-03-17T02:37:09;6.15;;;2.80;;
85158;SDS011;75525;50.718;10.600;2024-03-17T02:38:09;4.40;;;2.20;;
85158;SDS011;75525;50.718;10.600;2024-03-17T02:39:15;4.55;;;2.58;;
85158;SDS011;75525;50.718;10.600;2024-03-17T02:40:34;5.97;;;2.45;;
85158;SDS011;75525;50.718;10.600;2024-03-17T02:41:34;3.92;;;2.45;;
85158;SDS011;75525;50.718;10.600;2024-03-17T02:42:35;7.32;;;2.85;;
85158;SDS011;75525;50.718;10.600;2024-03-17T02:43:38;4.65;;;2.42;;
85158;SDS011;75525;50.718;10.600;2024-03-17T02:44:38;3.63;;;2.63;;
85158;SDS011;75525;50.718;10.600;2024-03-17T02:45:41;4.32;;;2.50;;
85158;SDS011;75525;50.718;10.600;2024-03-17T02:46:43;4.60;;;2.42;;
85158;SDS011;75525;50.718;10.600;2024-03-17T02:47:43;4.57;;;3.10;;
85158;SDS011;75525;50.718;10.600;2024-03-17T02:48:46;5.32;;;2.90;;
85158;SDS011;75525;50.718;10.600;2024-03-17T02:49:47;7.35;;;2.55;;
85158;SDS011;75525;50.718;10.600;2024-03-17T02:50:50;4.43;;;2.80;;
85158;SDS011;75525;50.718;10.600;2024-03-17T02:51:51;5.30;;;2.72;;
85158;SDS011;75525;50.718;10.600;2024-03-17T02:52:51;4.88;;;2.50;;
85158;SDS011;75525;50.718;10.600;2024-03-17T02:53:51;6.53;;;2.67;;
85158;SDS011;75525;50.718;10.600;2024-03-17T02:54:52;6.75;;;2.95;;
85158;SDS011;75525;50.718;10.600;2024-03-17T02:55:55;4.75;;;2.72;;
85158;SDS011;75525;50.718;10.600;2024-03-17T02:56:56;7.25;;;2.83;;
85158;SDS011;75525;50.718;10.600;2024-03-17T02:57:56;4.40;;;2.60;;
85158;SDS011;75525;50.718;10.600;2024-03-17T02:58:57;4.82;;;2.58;;
85158;SDS011;75525;50.718;10.600;2024-03-17T02:59:58;3.63;;;2.63;;
85158;SDS011;75525;50.718;10.600;2024-03-17T03:00:59;7.95;;;3.15;;
85158;SDS011;75525;50.718;10.600;2024-03-17T03:01:59;6.10;;;2.92;;
85158;SDS011;75525;50.718;10.600;2024-03-17T03:03:00;4.63;;;2.60;;
85158;SDS011;75525;50.718;10.600;2024-03-17T03:04:00;10.73;;;3.20;;
85158;SDS011;75525;50.718;10.600;2024-03-17T03:05:01;5.18;;;2.67;;
85158;SDS011;75525;50.718;10.600;2024-03-17T03:06:02;5.32;;;2.75;;
85158;SDS011;75525;50.718;10.600;2024-03-17T03:07:04;4.35;;;2.72;;
85158;SDS011;75525;50.718;10.600;2024-03-17T03:08:05;4.63;;;3.10;;
85158;SDS011;75525;50.718;10.600;2024-03-17T03:09:05;5.68;;;2.90;;
85158;SDS011;75525;50.718;10.600;2024-03-17T03:10:12;6.82;;;3.65;;
85158;SDS011;75525;50.718;10.600;2024-03-17T03:11:13;4.38;;;2.83;;
85158;SDS011;75525;50.718;10.600;2024-03-17T03:12:13;5.88;;;3.13;;
85158;SDS011;75525;50.718;10.600;2024-03-17T03:13:13;5.57;;;3.20;;
85158;SDS011;75525;50.718;10.600;2024-03-17T03:14:14;8.68;;;3.40;;
85158;SDS011;75525;50.718;10.600;2024-03-17T03:15:14;5.00;;;3.20;;
85158;SDS011;75525;50.718;10.600;2024-03-17T03:16:15;7.00;;;3.33;;
85158;SDS011;75525;50.718;10.600;2024-03-17T03:17:15;6.85;;;3.38;;
85158;SDS011;75525;50.718;10.600;2024-03-17T03:18:16;4.50;;;3.13;;
85158;SDS011;75525;50.718;10.600;2024-03-17T03:19:17;5.93;;;3.00;;
85158;SDS011;75525;50.718;10.600;2024-03-17T03:20:19;6.40;;;3.67;;
85158;SDS011;75525;50.718;10.600;2024-03-17T03:21:19;6.68;;;3.50;;
85158;SDS011;75525;50.718;10.600;2024-03-17T03:22:21;5.60;;;3.20;;
85158;SDS011;75525;50.718;10.600;2024-03-17T03:23:22;4.55;;;3.03;;
85158;SDS011;75525;50.718;10.600;2024-03-17T03:24:22;5.15;;;3.13;;
85158;SDS011;75525;50.718;10.600;2024-03-17T03:25:22;8.32;;;3.95;;
85158;SDS011;75525;50.718;10.600;2024-03-17T03:26:23;5.47;;;3.45;;
85158;SDS011;75525;50.718;10.600;2024-03-17T03:27:23;9.35;;;3.72;;
85158;SDS011;75525;50.718;10.600;2024-03-17T03:28:25;7.03;;;3.58;;
85158;SDS011;75525;50.718;10.600;2024-03-17T03:29:26;6.60;;;3.28;;
85158;SDS011;75525;50.718;10.600;2024-03-17T03:30:27;6.35;;;3.20;;
85158;SDS011;75525;50.718;10.600;2024-03-17T03:31:27;9.10;;;3.67;;
85158;SDS011;75525;50.718;10.600;2024-03-17T03:32:28;5.55;;;3.03;;
85158;SDS011;75525;50.718;10.600;2024-03-17T03:33:28;5.65;;;3.47;;
85158;SDS011;75525;50.718;10.600;2024-03-17T03:34:29;8.70;;;3.63;;
85158;SDS011;75525;50.718;10.600;2024-03-17T03:35:29;6.45;;;3.65;;
85158;SDS011;75525;50.718;10.600;2024-03-17T03:36:30;5.40;;;3.50;;
85158;SDS011;75525;50.718;10.600;2024-03-17T03:37:31;7.05;;;3.20;;
85158;SDS011;75525;50.718;10.600;2024-03-17T03:38:32;6.32;;;3.47;;
85158;SDS011;75525;50.718;10.600;2024-03-17T03:39:33;5.30;;;3.67;;
85158;SDS011;75525;50.718;10.600;2024-03-17T03:40:33;5.47;;;3.80;;
85158;SDS011;75525;50.718;10.600;2024-03-17T03:41:34;7.55;;;3.65;;
85158;SDS011;75525;50.718;10.600;2024-03-17T03:42:35;7.97;;;3.85;;
85158;SDS011;75525;50.718;10.600;2024-03-17T03:43:36;4.88;;;3.50;;
85158;SDS011;75525;50.718;10.600;2024-03-17T03:44:36;7.00;;;3.97;;
85158;SDS011;75525;50.718;10.600;2024-03-17T03:45:37;6.10;;;3.75;;
85158;SDS011;75525;50.718;10.600;2024-03-17T03:46:37;7.70;;;3.70;;
85158;SDS011;75525;50.718;10.600;2024-03-17T03:47:41;6.57;;;3.65;;
85158;SDS011;75525;50.718;10.600;2024-03-17T03:48:42;5.47;;;3.38;;
85158;SDS011;75525;50.718;10.600;2024-03-17T03:49:43;5.45;;;3.60;;
85158;SDS011;75525;50.718;10.600;2024-03-17T03:50:45;7.32;;;4.03;;
85158;SDS011;75525;50.718;10.600;2024-03-17T03:51:45;6.75;;;3.53;;
85158;SDS011;75525;50.718;10.600;2024-03-17T03:52:46;8.13;;;4.10;;
85158;SDS011;75525;50.718;10.600;2024-03-17T03:53:47;6.50;;;3.40;;
85158;SDS011;75525;50.718;10.600;2024-03-17T03:54:47;7.35;;;3.70;;
85158;SDS011;75525;50.718;10.600;2024-03-17T03:55:52;7.15;;;3.80;;
85158;SDS011;75525;50.718;10.600;2024-03-17T03:56:52;6.38;;;3.85;;
85158;SDS011;75525;50.718;10.600;2024-03-17T03:57:54;6.22;;;3.17;;
85158;SDS011;75525;50.718;10.600;2024-03-17T03:58:54;6.43;;;3.65;;
85158;SDS011;75525;50.718;10.600;2024-03-17T03:59:55;5.30;;;3.65;;
85158;SDS011;75525;50.718;10.600;2024-03-17T04:00:55;6.90;;;4.07;;
85158;SDS011;75525;50.718;10.600;2024-03-17T04:01:56;5.97;;;3.80;;
85158;SDS011;75525;50.718;10.600;2024-03-17T04:02:58;5.82;;;4.00;;
85158;SDS011;75525;50.718;10.600;2024-03-17T04:03:58;5.93;;;3.65;;
85158;SDS011;75525;50.718;10.600;2024-03-17T04:04:59;6.15;;;3.50;;
85158;SDS011;75525;50.718;10.600;2024-03-17T04:06:03;7.00;;;3.47;;
85158;SDS011;75525;50.718;10.600;2024-03-17T04:07:14;6.68;;;3.17;;
85158;SDS011;75525;50.718;10.600;2024-03-17T04:08:14;6.88;;;3.78;;
85158;SDS011;75525;50.718;10.600;2024-03-17T04:09:15;6.05;;;3.80;;
85158;SDS011;75525;50.718;10.600;2024-03-17T04:10:15;9.18;;;3.83;;
85158;SDS011;75525;50.718;10.600;2024-03-17T04:11:18;11.85;;;3.53;;
85158;SDS011;75525;50.718;10.600;2024-03-17T04:12:19;10.07;;;4.00;;
85158;SDS011;75525;50.718;10.600;2024-03-17T04:13:19;6.97;;;3.92;;
85158;SDS011;75525;50.718;10.600;2024-03-17T04:14:20;8.40;;;3.88;;
85158;SDS011;75525;50.718;10.600;2024-03-17T04:15:20;6.22;;;3.80;;
85158;SDS011;75525;50.718;10.600;2024-03-17T04:16:21;6.07;;;3.22;;
85158;SDS011;75525;50.718;10.600;2024-03-17T04:17:21;6.57;;;3.70;;
85158;SDS011;75525;50.718;10.600;2024-03-17T04:18:23;7.43;;;3.88;;
85158;SDS011;75525;50.718;10.600;2024-03-17T04:19:27;6.47;;;3.70;;
85158;SDS011;75525;50.718;10.600;2024-03-17T04:20:27;6.85;;;3.55;;
85158;SDS011;75525;50.718;10.600;2024-03-17T04:21:27;7.95;;;3.85;;
85158;SDS011;75525;50.718;10.600;2024-03-17T04:22:28;6.28;;;3.33;;
85158;SDS011;75525;50.718;10.600;2024-03-17T04:23:28;7.15;;;3.70;;
85158;SDS011;75525;50.718;10.600;2024-03-17T04:24:30;5.25;;;3.33;;
85158;SDS011;75525;50.718;10.600;2024-03-17T04:25:31;6.07;;;3.60;;
85158;SDS011;75525;50.718;10.600;2024-03-17T04:26:32;10.55;;;4.05;;
85158;SDS011;75525;50.718;10.600;2024-03-17T04:27:33;8.18;;;3.60;;
85158;SDS011;75525;50.718;10.600;2024-03-17T04:28:33;7.40;;;3.63;;
85158;SDS011;75525;50.718;10.600;2024-03-17T04:29:35;7.25;;;3.72;;
85158;SDS011;75525;50.718;10.600;2024-03-17T04:30:35;7.32;;;3.70;;
85158;SDS011;75525;50.718;10.600;2024-03-17T04:31:36;9.95;;;4.32;;
85158;SDS011;75525;50.718;10.600;2024-03-17T04:32:38;9.10;;;3.70;;
85158;SDS011;75525;50.718;10.600;2024-03-17T04:33:38;6.15;;;3.70;;
85158;SDS011;75525;50.718;10.600;2024-03-17T04:34:39;7.93;;;4.32;;
85158;SDS011;75525;50.718;10.600;2024-03-17T04:35:39;7.85;;;4.05;;
85158;SDS011;75525;50.718;10.600;2024-03-17T04:36:41;10.48;;;3.67;;
85158;SDS011;75525;50.718;10.600;2024-03-17T04:37:41;7.88;;;3.72;;
85158;SDS011;75525;50.718;10.600;2024-03-17T04:38:42;6.97;;;3.70;;
85158;SDS011;75525;50.718;10.600;2024-03-17T04:39:43;6.97;;;4.22;;
85158;SDS011;75525;50.718;10.600;2024-03-17T04:40:44;8.77;;;3.92;;
85158;SDS011;75525;50.718;10.600;2024-03-17T04:41:45;7.93;;;3.65;;
85158;SDS011;75525;50.718;10.600;2024-03-17T04:42:48;11.30;;;4.35;;
85158;SDS011;75525;50.718;10.600;2024-03-17T04:43:49;7.90;;;3.72;;
85158;SDS011;75525;50.718;10.600;2024-03-17T04:44:49;6.95;;;3.50;;
85158;SDS011;75525;50.718;10.600;2024-03-17T04:45:58;7.40;;;3.63;;
85158;SDS011;75525;50.718;10.600;2024-03-17T04:47:00;6.80;;;3.70;;
85158;SDS011;75525;50.718;10.600;2024-03-17T04:48:00;7.70;;;3.70;;
85158;SDS011;75525;50.718;10.600;2024-03-17T04:49:01;6.85;;;3.85;;
85158;SDS011;75525;50.718;10.600;2024-03-17T04:50:03;5.95;;;3.47;;
85158;SDS011;75525;50.718;10.600;2024-03-17T04:51:04;6.72;;;4.10;;
85158;SDS011;75525;50.718;10.600;2024-03-17T04:52:05;6.85;;;4.05;;
85158;SDS011;75525;50.718;10.600;2024-03-17T04:53:07;6.72;;;3.92;;
85158;SDS011;75525;50.718;10.600;2024-03-17T04:54:07;6.65;;;3.67;;
85158;SDS011;75525;50.718;10.600;2024-03-17T04:55:08;6.68;;;3.80;;
85158;SDS011;75525;50.718;10.600;2024-03-17T04:56:08;7.53;;;4.35;;
85158;SDS011;75525;50.718;10.600;2024-03-17T04:57:09;8.27;;;4.15;;
85158;SDS011;75525;50.718;10.600;2024-03-17T04:58:10;8.18;;;3.88;;
85158;SDS011;75525;50.718;10.600;2024-03-17T04:59:11;7.55;;;3.67;;
85158;SDS011;75525;50.718;10.600;2024-03-17T05:00:11;6.30;;;3.75;;
85158;SDS011;75525;50.718;10.600;2024-03-17T05:01:14;5.70;;;3.72;;
85158;SDS011;75525;50.718;10.600;2024-03-17T05:02:14;8.48;;;3.95;;
85158;SDS011;75525;50.718;10.600;2024-03-17T05:03:14;5.07;;;3.30;;
85158;SDS011;75525;50.718;10.600;2024-03-17T05:04:16;6.53;;;3.38;;
85158;SDS011;75525;50.718;10.600;2024-03-17T05:05:16;6.43;;;3.67;;
85158;SDS011;75525;50.718;10.600;2024-03-17T05:06:17;6.05;;;3.65;;
85158;SDS011;75525;50.718;10.600;2024-03-17T05:07:17;6.55;;;3.80;;
85158;SDS011;75525;50.718;10.600;2024-03-17T05:08:17;11.07;;;3.90;;
85158;SDS011;75525;50.718;10.600;2024-03-17T05:09:18;5.88;;;3.42;;
85158;SDS011;75525;50.718;10.600;2024-03-17T05:10:19;6.43;;;3.88;;
85158;SDS011;75525;50.718;10.600;2024-03-17T05:11:20;6.05;;;4.60;;
85158;SDS011;75525;50.718;10.600;2024-03-17T05:12:20;6.90;;;3.38;;
85158;SDS011;75525;50.718;10.600;2024-03-17T05:13:20;6.25;;;3.70;;
85158;SDS011;75525;50.718;10.600;2024-03-17T05:14:21;6.68;;;3.80;;
85158;SDS011;75525;50.718;10.600;2024-03-17T05:15:21;7.38;;;3.80;;
85158;SDS011;75525;50.718;10.600;2024-03-17T05:16:22;6.78;;;3.80;;
85158;SDS011;75525;50.718;10.600;2024-03-17T05:17:24;8.45;;;3.80;;
85158;SDS011;75525;50.718;10.600;2024-03-17T05:18:24;8.88;;;4.05;;
85158;SDS011;75525;50.718;10.600;2024-03-17T05:19:26;6.63;;;3.60;;
85158;SDS011;75525;50.718;10.600;2024-03-17T05:20:26;6.40;;;3.80;;
85158;SDS011;75525;50.718;10.600;2024-03-17T05:21:27;8.40;;;3.83;;
85158;SDS011;75525;50.718;10.600;2024-03-17T05:22:30;5.15;;;3.22;;
85158;SDS011;75525;50.718;10.600;2024-03-17T05:23:31;7.60;;;4.05;;
85158;SDS011;75525;50.718;10.600;2024-03-17T05:24:33;7.80;;;3.00;;
85158;SDS011;75525;50.718;10.600;2024-03-17T05:25:33;8.73;;;4.50;;
85158;SDS011;75525;50.718;10.600;2024-03-17T05:26:36;11.88;;;4.15;;
85158;SDS011;75525;50.718;10.600;2024-03-17T05:27:37;8.35;;;4.13;;
85158;SDS011;75525;50.718;10.600;2024-03-17T05:28:37;7.53;;;3.83;;
85158;SDS011;75525;50.718;10.600;2024-03-17T05:29:38;7.50;;;4.35;;
85158;SDS011;75525;50.718;10.600;2024-03-17T05:30:39;7.30;;;4.05;;
85158;SDS011;75525;50.718;10.600;2024-03-17T05:31:39;7.63;;;3.72;;
85158;SDS011;75525;50.718;10.600;2024-03-17T05:32:40;7.38;;;3.88;;
85158;SDS011;75525;50.718;10.600;2024-03-17T05:33:40;9.48;;;3.90;;
85158;SDS011;75525;50.718;10.600;2024-03-17T05:34:41;8.18;;;4.00;;
85158;SDS011;75525;50.718;10.600;2024-03-17T05:35:47;7.00;;;4.18;;
85158;SDS011;75525;50.718;10.600;2024-03-17T05:36:50;7.53;;;4.07;;
85158;SDS011;75525;50.718;10.600;2024-03-17T05:37:50;8.93;;;4.03;;
85158;SDS011;75525;50.718;10.600;2024-03-17T05:38:51;5.95;;;4.13;;
85158;SDS011;75525;50.718;10.600;2024-03-17T05:39:51;11.35;;;4.32;;
85158;SDS011;75525;50.718;10.600;2024-03-17T05:40:58;7.97;;;3.88;;
85158;SDS011;75525;50.718;10.600;2024-03-17T05:42:02;8.27;;;3.78;;
85158;SDS011;75525;50.718;10.600;2024-03-17T05:43:03;8.02;;;3.45;;
85158;SDS011;75525;50.718;10.600;2024-03-17T05:44:04;10.88;;;3.97;;
85158;SDS011;75525;50.718;10.600;2024-03-17T05:45:04;6.25;;;3.65;;
85158;SDS011;75525;50.718;10.600;2024-03-17T05:46:06;8.70;;;4.68;;
85158;SDS011;75525;50.718;10.600;2024-03-17T05:47:11;6.85;;;3.83;;
85158;SDS011;75525;50.718;10.600;2024-03-17T05:48:12;6.38;;;3.60;;
85158;SDS011;75525;50.718;10.600;2024-03-17T05:49:13;6.20;;;3.67;;
85158;SDS011;75525;50.718;10.600;2024-03-17T05:50:13;6.72;;;3.80;;
85158;SDS011;75525;50.718;10.600;2024-03-17T05:51:15;6.03;;;3.50;;
85158;SDS011;75525;50.718;10.600;2024-03-17T05:52:16;7.68;;;3.83;;
85158;SDS011;75525;50.718;10.600;2024-03-17T05:53:17;7.50;;;4.32;;
85158;SDS011;75525;50.718;10.600;2024-03-17T05:54:18;9.20;;;3.80;;
85158;SDS011;75525;50.718;10.600;2024-03-17T05:55:18;6.95;;;3.92;;
85158;SDS011;75525;50.718;10.600;2024-03-17T05:56:19;6.55;;;4.10;;
85158;SDS011;75525;50.718;10.600;2024-03-17T05:57:19;5.25;;;3.35;;
85158;SDS011;75525;50.718;10.600;2024-03-17T05:58:19;7.22;;;4.70;;
85158;SDS011;75525;50.718;10.600;2024-03-17T05:59:20;5.65;;;3.58;;
85158;SDS011;75525;50.718;10.600;2024-03-17T06:00:20;6.57;;;4.30;;
85158;SDS011;75525;50.718;10.600;2024-03-17T06:01:21;7.50;;;4.38;;
85158;SDS011;75525;50.718;10.600;2024-03-17T06:02:22;6.07;;;3.90;;
85158;SDS011;75525;50.718;10.600;2024-03-17T06:03:23;5.97;;;3.85;;
85158;SDS011;75525;50.718;10.600;2024-03-17T06:04:23;7.45;;;3.65;;
85158;SDS011;75525;50.718;10.600;2024-03-17T06:05:24;6.18;;;3.50;;